createdAt,value
2022-10-17T00:01:19.736Z,12.10
2022-10-17T00:03:48.694Z,13.20
2022-10-17T00:06:17.277Z,12.40
2022-10-17T00:08:45.862Z,12.00
2022-10-17T00:11:21.040Z,10.50
2022-10-17T00:13:53.961Z,11.20
2022-10-17T00:16:41.209Z,11.30
2022-10-17T00:19:09.897Z,12.60
2022-10-17T00:21:38.584Z,11.30
2022-10-17T00:24:07.643Z,11.00
2022-10-17T00:26:36.471Z,10.30
2022-10-17T00:29:04.927Z,9.50
2022-10-17T00:31:34.456Z,10.60
2022-10-17T00:34:03.246Z,9.10
2022-10-17T00:36:32.156Z,9.30
2022-10-17T00:39:01.029Z,12.40
2022-10-17T00:41:33.600Z,12.30
2022-10-17T00:44:27.794Z,13.50
2022-10-17T00:47:01.367Z,10.30
2022-10-17T00:49:35.610Z,10.00
2022-10-17T00:52:10.404Z,7.90
2022-10-17T00:54:44.970Z,7.10
2022-10-17T00:57:16.615Z,7.10
2022-10-17T00:59:52.040Z,7.20
2022-10-17T01:02:23.179Z,6.00
2022-10-17T01:04:56.811Z,6.30
2022-10-17T01:07:28.743Z,7.80
2022-10-17T01:09:59.761Z,7.50
2022-10-17T01:12:39.567Z,8.10
2022-10-17T01:16:16.759Z,8.80
2022-10-17T01:18:48.624Z,7.70
2022-10-17T01:22:00.935Z,7.10
2022-10-17T01:24:59.317Z,7.50
2022-10-17T01:27:52.883Z,7.10
2022-10-17T01:30:30.069Z,8.10
2022-10-17T01:34:02.143Z,8.90
2022-10-17T01:37:15.140Z,8.70
2022-10-17T01:39:52.725Z,9.80
2022-10-17T01:42:46.744Z,8.60
2022-10-17T01:45:28.543Z,9.60
2022-10-17T01:48:00.918Z,7.90
2022-10-17T01:50:36.660Z,8.20
2022-10-17T01:53:36.795Z,7.10
2022-10-17T01:56:08.960Z,7.20
2022-10-17T01:58:49.524Z,7.40
2022-10-17T02:01:23.270Z,6.70
2022-10-17T02:03:53.922Z,6.50
2022-10-17T02:06:22.751Z,6.40
2022-10-17T02:08:52.364Z,6.40
2022-10-17T02:11:25.653Z,6.80
2022-10-17T02:14:26.194Z,6.70
2022-10-17T02:17:18.430Z,7.50
2022-10-17T02:20:18.045Z,6.80
2022-10-17T02:23:08.497Z,7.80
2022-10-17T02:25:44.395Z,7.60
2022-10-17T02:28:30.642Z,7.30
2022-10-17T02:31:08.902Z,7.90
2022-10-17T02:34:10.564Z,6.90
2022-10-17T02:36:46.344Z,6.90
2022-10-17T02:39:16.539Z,7.50
2022-10-17T02:41:47.503Z,7.70
2022-10-17T02:44:17.392Z,7.60
2022-10-17T02:46:56.188Z,7.90
2022-10-17T02:49:30.780Z,6.60
2022-10-17T02:52:41.002Z,7.10
2022-10-17T02:55:36.623Z,7.10
2022-10-17T02:58:30.807Z,6.40
2022-10-17T03:01:00.764Z,6.20
2022-10-17T03:03:32.543Z,6.00
2022-10-17T03:06:04.341Z,6.20
2022-10-17T03:08:32.882Z,5.70
2022-10-17T03:11:03.046Z,5.80
2022-10-17T03:13:34.964Z,6.30
2022-10-17T03:16:06.622Z,4.60
2022-10-17T03:18:36.992Z,5.00
2022-10-17T03:21:06.600Z,5.40
2022-10-17T03:23:35.801Z,4.90
2022-10-17T03:26:06.863Z,5.30
2022-10-17T03:28:36.409Z,5.30
2022-10-17T03:31:16.029Z,5.30
2022-10-17T03:33:45.394Z,5.20
2022-10-17T03:36:18.552Z,5.50
2022-10-17T03:38:48.792Z,5.50
2022-10-17T03:41:18.522Z,5.30
2022-10-17T03:43:47.411Z,6.10
2022-10-17T03:48:50.522Z,5.60
2022-10-17T03:51:19.426Z,6.90
2022-10-17T03:53:52.502Z,5.80
2022-10-17T03:56:24.964Z,6.40
2022-10-17T03:59:12.790Z,7.40
2022-10-17T04:01:42.677Z,7.00
2022-10-17T04:04:12.031Z,6.60
2022-10-17T04:06:40.819Z,6.70
2022-10-17T04:09:11.708Z,7.40
2022-10-17T04:11:46.002Z,6.70
2022-10-17T04:14:14.868Z,7.30
2022-10-17T04:16:44.428Z,7.70
2022-10-17T04:19:17.156Z,7.70
2022-10-17T04:21:48.130Z,7.10
2022-10-17T04:24:17.089Z,7.60
2022-10-17T04:26:55.262Z,11.40
2022-10-17T04:29:26.239Z,8.90
2022-10-17T04:31:58.100Z,10.50
2022-10-17T04:34:37.335Z,12.20
2022-10-17T04:37:06.022Z,13.50
2022-10-17T04:39:34.913Z,13.10
2022-10-17T04:42:03.399Z,14.20
2022-10-17T04:44:33.926Z,13.20
2022-10-17T04:47:02.612Z,15.00
2022-10-17T04:49:31.145Z,13.00
2022-10-17T04:52:07.566Z,16.00
2022-10-17T04:54:44.813Z,14.50
2022-10-17T04:57:15.279Z,15.20
2022-10-17T04:59:49.395Z,13.40
2022-10-17T05:02:28.691Z,13.10
2022-10-17T05:04:57.416Z,12.40
2022-10-17T05:07:25.900Z,13.30
2022-10-17T05:09:58.987Z,12.60
2022-10-17T05:12:27.945Z,13.50
2022-10-17T05:14:56.772Z,15.70
2022-10-17T05:17:26.687Z,15.20
2022-10-17T05:19:55.170Z,17.70
2022-10-17T05:22:24.164Z,15.10
2022-10-17T05:24:52.747Z,14.30
2022-10-17T05:27:21.127Z,15.70
2022-10-17T05:29:49.916Z,13.80
2022-10-17T05:32:26.015Z,14.50
2022-10-17T05:34:54.662Z,13.30
2022-10-17T05:37:23.767Z,14.40
2022-10-17T05:39:53.478Z,13.90
2022-10-17T05:42:22.110Z,13.20
2022-10-17T05:44:50.642Z,13.50
2022-10-17T05:47:20.349Z,12.30
2022-10-17T05:49:52.308Z,11.50
2022-10-17T05:52:25.815Z,11.40
2022-10-17T05:55:14.570Z,10.40
2022-10-17T05:57:43.052Z,11.10
2022-10-17T06:00:15.121Z,10.40
2022-10-17T06:02:48.782Z,10.80
2022-10-17T06:05:18.508Z,9.20
2022-10-17T06:07:50.421Z,9.70
2022-10-17T06:10:19.697Z,10.40
2022-10-17T06:12:48.178Z,9.90
2022-10-17T06:15:17.524Z,10.10
2022-10-17T06:17:49.861Z,10.30
2022-10-17T06:20:18.334Z,11.00
2022-10-17T06:22:46.714Z,12.10
2022-10-17T06:25:22.776Z,10.00
2022-10-17T06:27:51.257Z,11.90
2022-10-17T06:30:19.738Z,12.00
2022-10-17T06:32:48.117Z,11.80
2022-10-17T06:35:17.521Z,11.50
2022-10-17T06:37:46.413Z,11.40
2022-10-17T06:40:17.288Z,11.30
2022-10-17T06:42:46.551Z,11.80
2022-10-17T06:45:40.531Z,11.00
2022-10-17T06:48:29.700Z,11.10
2022-10-17T06:51:24.394Z,10.30
2022-10-17T06:53:58.785Z,10.40
2022-10-17T06:56:42.453Z,11.10
2022-10-17T06:59:24.964Z,10.90
2022-10-17T07:02:16.077Z,10.60
2022-10-17T07:04:47.838Z,10.80
2022-10-17T07:07:16.420Z,10.10
2022-10-17T07:09:45.107Z,10.90
2022-10-17T07:12:13.825Z,11.10
2022-10-17T07:14:47.703Z,11.40
2022-10-17T07:17:17.620Z,15.80
2022-10-17T07:19:46.269Z,20.90
2022-10-17T07:22:14.787Z,21.10
2022-10-17T07:24:46.409Z,17.00
2022-10-17T07:27:41.345Z,14.40
2022-10-17T07:30:11.161Z,12.70
2022-10-17T07:32:43.612Z,12.10
2022-10-17T07:35:12.936Z,12.20
2022-10-17T07:37:42.552Z,13.00
2022-10-17T07:40:11.469Z,12.00
2022-10-17T07:45:14.436Z,11.50
2022-10-17T07:47:43.642Z,12.40
2022-10-17T07:50:15.103Z,12.40
2022-10-17T07:52:43.578Z,12.20
2022-10-17T07:55:12.163Z,11.40
2022-10-17T07:57:40.745Z,11.90
2022-10-17T08:00:10.118Z,12.10
2022-10-17T08:02:43.033Z,11.70
2022-10-17T08:05:11.517Z,10.70
2022-10-17T08:07:41.739Z,11.90
2022-10-17T08:10:13.941Z,11.50
2022-10-17T08:12:43.109Z,12.10
2022-10-17T08:15:12.057Z,11.40
2022-10-17T08:17:40.482Z,11.70
2022-10-17T08:20:11.016Z,12.20
2022-10-17T08:22:39.594Z,12.40
2022-10-17T08:25:09.305Z,11.30
2022-10-17T08:27:37.991Z,12.00
2022-10-17T08:30:07.865Z,11.60
2022-10-17T08:32:36.390Z,11.60
2022-10-17T08:35:05.690Z,12.50
2022-10-17T08:37:34.316Z,12.00
2022-10-17T08:40:04.065Z,11.30
2022-10-17T08:42:44.247Z,11.80
2022-10-17T08:45:23.988Z,11.20
2022-10-17T08:47:59.824Z,11.40
2022-10-17T08:50:39.793Z,11.60
2022-10-17T08:53:31.110Z,10.60
2022-10-17T08:56:11.960Z,11.70
2022-10-17T08:58:43.743Z,11.20
2022-10-17T09:01:33.933Z,10.50
2022-10-17T09:04:35.752Z,11.20
2022-10-17T09:07:28.539Z,11.20
2022-10-17T09:10:26.421Z,11.10
2022-10-17T09:13:22.141Z,10.90
2022-10-17T09:16:54.728Z,11.20
2022-10-17T09:19:45.329Z,11.00
2022-10-17T09:22:28.727Z,11.40
2022-10-17T09:25:03.553Z,11.00
2022-10-17T09:28:11.416Z,10.60
2022-10-17T09:31:14.693Z,9.90
2022-10-17T09:33:54.715Z,10.70
2022-10-17T09:36:30.318Z,10.30
2022-10-17T09:39:23.173Z,10.40
2022-10-17T09:42:00.187Z,10.80
2022-10-17T09:44:36.136Z,10.70
2022-10-17T09:47:35.698Z,10.70
2022-10-17T09:50:14.831Z,10.50
2022-10-17T09:52:48.922Z,10.60
2022-10-17T09:56:04.328Z,10.20
2022-10-17T09:58:54.761Z,9.80
2022-10-17T10:01:29.280Z,11.40
2022-10-17T10:04:16.877Z,10.90
2022-10-17T10:07:12.494Z,9.80
2022-10-17T10:09:47.018Z,10.30
2022-10-17T10:12:38.763Z,10.70
2022-10-17T10:15:41.355Z,10.10
2022-10-17T10:18:25.765Z,9.40
2022-10-17T10:21:20.012Z,9.30
2022-10-17T10:24:13.745Z,8.10
2022-10-17T10:26:50.903Z,9.40
2022-10-17T10:29:34.987Z,9.20
2022-10-17T10:32:25.270Z,9.40
2022-10-17T10:35:21.826Z,9.00
2022-10-17T10:37:54.564Z,8.80
2022-10-17T10:40:37.462Z,9.70
2022-10-17T10:43:07.019Z,9.80
2022-10-17T10:45:53.603Z,9.80
2022-10-17T10:48:23.867Z,8.40
2022-10-17T10:51:12.301Z,8.50
2022-10-17T10:54:10.580Z,8.70
2022-10-17T10:56:40.599Z,9.30
2022-10-17T10:59:08.913Z,9.10
2022-10-17T11:02:02.551Z,8.50
2022-10-17T11:04:53.017Z,8.40
2022-10-17T11:07:36.985Z,7.70
2022-10-17T11:10:17.354Z,8.70
2022-10-17T11:13:04.983Z,8.00
2022-10-17T11:15:45.446Z,8.20
2022-10-17T11:18:28.571Z,8.10
2022-10-17T11:21:33.453Z,8.70
2022-10-17T11:24:34.046Z,8.10
2022-10-17T11:27:06.700Z,7.90
2022-10-17T11:29:39.409Z,7.30
2022-10-17T11:32:31.871Z,7.90
2022-10-17T11:35:30.950Z,7.50
2022-10-17T11:38:25.951Z,7.50
2022-10-17T11:40:59.969Z,7.40
2022-10-17T11:43:38.977Z,7.20
2022-10-17T11:46:29.080Z,6.90
2022-10-17T11:49:20.479Z,8.20
2022-10-17T11:52:10.281Z,8.50
2022-10-17T11:54:46.444Z,7.70
2022-10-17T11:57:42.407Z,8.20
2022-10-17T12:00:50.324Z,8.10
2022-10-17T12:04:03.501Z,7.30
2022-10-17T12:06:46.326Z,7.80
2022-10-17T12:09:41.071Z,8.00
2022-10-17T12:12:10.016Z,7.30
2022-10-17T12:14:42.498Z,7.70
2022-10-17T12:17:30.947Z,8.30
2022-10-17T12:20:21.748Z,8.10
2022-10-17T12:23:11.735Z,8.20
2022-10-17T12:26:04.725Z,7.20
2022-10-17T12:28:37.873Z,6.70
2022-10-17T12:31:29.635Z,6.60
2022-10-17T12:34:05.669Z,6.90
2022-10-17T12:36:34.152Z,7.60
2022-10-17T12:39:02.634Z,7.10
2022-10-17T12:41:40.252Z,6.90
2022-10-17T12:44:15.244Z,6.40
2022-10-17T12:47:18.972Z,6.30
2022-10-17T12:49:53.098Z,6.40
2022-10-17T12:52:35.244Z,6.50
2022-10-17T12:55:12.535Z,5.90
2022-10-17T12:57:50.484Z,5.90
2022-10-17T13:01:18.925Z,6.00
2022-10-17T13:03:47.062Z,6.30
2022-10-17T13:06:29.655Z,18.40
2022-10-17T13:09:05.922Z,26.40
2022-10-17T13:11:37.991Z,18.10
2022-10-17T13:14:15.685Z,12.50
2022-10-17T13:16:54.612Z,11.40
2022-10-17T13:19:31.926Z,8.80
2022-10-17T13:22:06.791Z,6.70
2022-10-17T13:24:41.548Z,5.90
2022-10-17T13:27:33.489Z,6.30
2022-10-17T13:30:29.332Z,7.60
2022-10-17T13:33:02.407Z,7.40
2022-10-17T13:38:32.634Z,8.50
2022-10-17T13:41:30.191Z,9.80
2022-10-17T13:43:53.373Z,8.40
2022-10-17T13:46:39.788Z,8.60
2022-10-17T13:49:28.157Z,8.10
2022-10-17T13:51:58.609Z,10.60
2022-10-17T13:54:42.498Z,9.30
2022-10-17T13:57:28.067Z,9.00
2022-10-17T14:00:11.714Z,8.10
2022-10-17T14:02:41.532Z,7.10
2022-10-17T14:05:20.182Z,7.50
2022-10-17T14:08:21.883Z,8.20
2022-10-17T14:10:50.607Z,9.20
2022-10-17T14:13:29.087Z,10.40
2022-10-17T14:16:03.358Z,10.80
2022-10-17T14:18:37.318Z,9.50
2022-10-17T14:21:36.855Z,9.40
2022-10-17T14:24:35.958Z,9.00
2022-10-17T14:27:42.746Z,9.00
2022-10-17T14:30:51.775Z,8.60
2022-10-17T14:33:31.452Z,8.20
2022-10-17T14:36:02.768Z,9.20
2022-10-17T14:38:32.167Z,9.10
2022-10-17T14:41:37.405Z,8.70
2022-10-17T14:44:03.785Z,9.30
2022-10-17T14:46:33.244Z,9.30
2022-10-17T14:49:16.943Z,8.40
2022-10-17T14:52:18.981Z,8.90
2022-10-17T14:54:49.990Z,8.20
2022-10-17T14:57:33.732Z,9.10
2022-10-17T15:00:02.523Z,8.50
2022-10-17T15:02:31.400Z,8.30
2022-10-17T15:05:00.203Z,8.20
2022-10-17T15:07:29.814Z,8.70
2022-10-17T15:09:58.600Z,9.20
2022-10-17T15:12:27.210Z,9.40
2022-10-17T15:14:55.910Z,9.40
2022-10-17T15:17:31.629Z,9.60
2022-10-17T15:20:00.748Z,9.60
2022-10-17T15:22:29.758Z,9.70
2022-10-17T15:24:59.015Z,8.80
2022-10-17T15:27:28.066Z,10.90
2022-10-17T15:29:57.106Z,10.80
2022-10-17T15:32:25.486Z,10.20
2022-10-17T15:34:53.978Z,10.30
2022-10-17T15:37:25.714Z,10.60
2022-10-17T15:39:57.107Z,10.00
2022-10-17T15:42:30.674Z,10.10
2022-10-17T15:44:59.358Z,11.00
2022-10-17T15:47:34.427Z,10.40
2022-10-17T15:50:05.052Z,10.70
2022-10-17T15:52:33.617Z,11.30
2022-10-17T15:55:05.261Z,9.70
2022-10-17T15:57:38.920Z,9.20
2022-10-17T16:00:20.165Z,10.40
2022-10-17T16:02:50.340Z,9.50
2022-10-17T16:05:23.815Z,22.70
2022-10-17T16:07:54.779Z,17.00
2022-10-17T16:10:24.224Z,25.90
2022-10-17T16:12:55.679Z,15.30
2022-10-17T16:15:28.117Z,13.00
2022-10-17T16:18:01.577Z,10.40
2022-10-17T16:20:33.002Z,10.70
2022-10-17T16:23:03.406Z,11.00
2022-10-17T16:25:32.970Z,11.00
2022-10-17T16:28:02.438Z,10.40
2022-10-17T16:30:33.008Z,11.80
2022-10-17T16:33:01.865Z,12.20
2022-10-17T16:35:34.742Z,12.50
2022-10-17T16:38:08.414Z,12.50
2022-10-17T16:40:39.216Z,13.10
2022-10-17T16:43:12.890Z,13.00
2022-10-17T16:45:41.795Z,12.70
2022-10-17T16:48:12.516Z,24.90
2022-10-17T16:50:41.618Z,14.30
2022-10-17T16:53:10.712Z,21.00
2022-10-17T16:55:39.510Z,14.80
2022-10-17T16:58:08.288Z,13.40
2022-10-17T17:00:39.881Z,13.20
2022-10-17T17:03:08.426Z,12.90
2022-10-17T17:05:37.121Z,12.60
2022-10-17T17:08:09.088Z,12.20
2022-10-17T17:10:47.633Z,13.10
2022-10-17T17:13:16.486Z,14.00
2022-10-17T17:18:23.642Z,11.20
2022-10-17T17:20:52.072Z,14.80
2022-10-17T17:23:20.861Z,13.30
2022-10-17T17:25:50.905Z,11.70
2022-10-17T17:28:19.461Z,10.40
2022-10-17T17:30:47.843Z,9.70
2022-10-17T17:33:16.221Z,10.50
2022-10-17T17:35:44.809Z,11.10
2022-10-17T17:38:13.288Z,10.50
2022-10-17T17:40:50.692Z,10.80
2022-10-17T17:43:20.289Z,12.10
2022-10-17T17:45:48.872Z,14.80
2022-10-17T17:48:17.870Z,14.30
2022-10-17T17:50:47.692Z,12.40
2022-10-17T17:53:18.952Z,11.70
2022-10-17T17:55:47.817Z,11.50
2022-10-17T17:58:16.503Z,12.30
2022-10-17T18:00:45.439Z,12.30
2022-10-17T18:03:15.210Z,14.60
2022-10-17T18:05:43.793Z,14.70
2022-10-17T18:08:12.480Z,13.20
2022-10-17T18:10:41.534Z,12.50
2022-10-17T18:13:10.673Z,12.50
2022-10-17T18:15:43.015Z,12.40
2022-10-17T18:18:11.732Z,11.20
2022-10-17T18:20:43.200Z,11.30
2022-10-17T18:23:12.077Z,11.40
2022-10-17T18:25:41.185Z,13.10
2022-10-17T18:28:10.270Z,11.50
2022-10-17T18:30:38.957Z,11.70
2022-10-17T18:33:07.541Z,16.70
2022-10-17T18:35:36.200Z,12.50
2022-10-17T18:38:04.813Z,11.90
2022-10-17T18:40:33.395Z,11.70
2022-10-17T18:43:01.979Z,11.20
2022-10-17T18:45:30.667Z,11.30
2022-10-17T18:47:59.251Z,12.70
2022-10-17T18:50:27.835Z,14.80
2022-10-17T18:52:56.625Z,14.50
2022-10-17T18:55:25.345Z,13.80
2022-10-17T18:57:54.032Z,14.40
2022-10-17T19:00:22.530Z,11.60
2022-10-17T19:02:51.067Z,11.80
2022-10-17T19:05:19.997Z,11.80
2022-10-17T19:07:48.643Z,11.40
2022-10-17T19:10:17.235Z,12.50
2022-10-17T19:12:46.463Z,13.60
2022-10-17T19:15:15.217Z,12.40
2022-10-17T19:17:43.800Z,12.70
2022-10-17T19:20:12.821Z,11.60
2022-10-17T19:22:41.438Z,11.80
2022-10-17T19:25:11.091Z,12.90
2022-10-17T19:27:39.675Z,12.10
2022-10-17T19:30:09.624Z,11.10
2022-10-17T19:32:38.788Z,12.90
2022-10-17T19:35:08.159Z,13.20
2022-10-17T19:37:36.673Z,13.30
2022-10-17T19:40:07.089Z,13.10
2022-10-17T19:42:35.686Z,13.00
2022-10-17T19:45:05.052Z,13.60
2022-10-17T19:47:34.590Z,14.40
2022-10-17T19:52:32.827Z,14.40
2022-10-17T19:55:02.347Z,13.90
2022-10-17T19:57:30.880Z,12.90
2022-10-17T19:59:59.370Z,13.40
2022-10-17T20:02:28.057Z,12.90
2022-10-17T20:05:17.035Z,12.40
2022-10-17T20:07:45.393Z,13.40
2022-10-17T20:10:14.762Z,13.10
2022-10-17T20:12:43.485Z,12.20
2022-10-17T20:15:12.384Z,14.00
2022-10-17T20:17:40.959Z,14.20
2022-10-17T20:20:10.819Z,13.60
2022-10-17T20:22:39.457Z,13.10
2022-10-17T20:25:08.759Z,13.00
2022-10-17T20:27:37.239Z,13.00
2022-10-17T20:30:06.754Z,13.40
2022-10-17T20:32:39.519Z,13.30
2022-10-17T20:35:09.605Z,13.90
2022-10-17T20:37:42.387Z,13.80
2022-10-17T20:43:00.592Z,16.10
2022-10-17T20:45:43.709Z,13.70
2022-10-17T20:48:17.832Z,13.40
2022-10-17T20:50:46.213Z,13.40
2022-10-17T20:53:35.926Z,14.10
2022-10-17T20:56:18.094Z,14.50
2022-10-17T20:58:52.148Z,15.40
2022-10-17T21:01:21.921Z,17.30
2022-10-17T21:03:51.460Z,14.90
2022-10-17T21:06:21.034Z,15.70
2022-10-17T21:08:50.338Z,15.30
2022-10-17T21:11:22.177Z,14.30
2022-10-17T21:14:06.755Z,13.80
2022-10-17T21:16:37.556Z,14.00
2022-10-17T21:19:06.674Z,14.40
2022-10-17T21:21:38.207Z,13.70
2022-10-17T21:24:13.278Z,14.50
2022-10-17T21:26:43.706Z,14.40
2022-10-17T21:29:15.057Z,15.20
2022-10-17T21:31:45.342Z,14.50
2022-10-17T21:34:24.823Z,14.80
2022-10-17T21:36:53.919Z,14.60
2022-10-17T21:39:25.065Z,13.90
2022-10-17T21:41:54.230Z,13.30
2022-10-17T21:44:26.024Z,14.30
2022-10-17T21:46:55.760Z,14.70
2022-10-17T21:49:25.650Z,14.60
2022-10-17T21:51:54.131Z,16.40
2022-10-17T21:54:23.775Z,16.10
2022-10-17T21:56:53.097Z,17.10
2022-10-17T21:59:21.518Z,16.20
2022-10-17T22:01:50.025Z,17.50
2022-10-17T22:04:19.843Z,18.40
2022-10-17T22:06:53.449Z,16.50
2022-10-17T22:09:27.324Z,17.10
2022-10-17T22:11:57.169Z,16.40
2022-10-17T22:14:27.742Z,17.10
2022-10-17T22:16:56.481Z,17.10
2022-10-17T22:19:27.077Z,16.60
2022-10-17T22:21:55.737Z,17.70
2022-10-17T22:24:24.157Z,18.40
2022-10-17T22:26:52.846Z,18.70
2022-10-17T22:29:21.529Z,18.40
2022-10-17T22:31:50.017Z,17.80
2022-10-17T22:34:19.193Z,17.20
2022-10-17T22:36:50.661Z,15.60
2022-10-17T22:39:19.247Z,15.80
2022-10-17T22:41:47.626Z,16.40
2022-10-17T22:44:16.004Z,15.50
2022-10-17T22:46:44.384Z,18.20
2022-10-17T22:49:12.866Z,17.00
2022-10-17T22:51:41.348Z,15.60
2022-10-17T22:54:09.729Z,16.70
2022-10-17T22:56:38.215Z,16.20
2022-10-17T22:59:06.624Z,17.60
2022-10-17T23:01:35.104Z,17.90
2022-10-17T23:04:03.655Z,18.00
2022-10-17T23:06:32.139Z,20.70
2022-10-17T23:09:00.518Z,19.50
2022-10-17T23:11:28.999Z,19.30
2022-10-17T23:13:57.379Z,18.40
2022-10-17T23:16:25.861Z,17.50
2022-10-17T23:18:54.248Z,18.00
2022-10-17T23:21:22.927Z,19.90
2022-10-17T23:23:51.409Z,20.20
2022-10-17T23:26:20.916Z,19.20
2022-10-17T23:28:54.805Z,18.90
2022-10-17T23:31:23.529Z,20.40
2022-10-17T23:33:51.994Z,19.60
2022-10-17T23:36:21.379Z,20.70
2022-10-17T23:38:52.628Z,20.80
2022-10-17T23:41:23.686Z,22.40
2022-10-17T23:43:52.067Z,21.00
2022-10-17T23:46:20.445Z,20.90
2022-10-17T23:48:48.938Z,21.10
2022-10-17T23:51:17.818Z,21.10
2022-10-17T23:53:46.405Z,20.10
2022-10-17T23:56:15.149Z,20.90
2022-10-17T23:58:43.777Z,21.30
